createdAt,value
2022-09-25T00:01:40.841Z,34.70
2022-09-25T00:06:48.270Z,37.63
2022-09-25T00:11:54.355Z,35.03
2022-09-25T00:16:59.687Z,36.53
2022-09-25T00:22:06.577Z,34.97
2022-09-25T00:27:12.023Z,32.93
2022-09-25T00:32:18.324Z,35.60
2022-09-25T00:37:23.490Z,37.53
2022-09-25T00:42:28.829Z,39.07
2022-09-25T00:47:52.134Z,38.37
2022-09-25T00:53:01.980Z,33.37
2022-09-25T00:58:08.486Z,31.57
2022-09-25T01:03:15.052Z,29.80
2022-09-25T01:08:23.291Z,31.87
2022-09-25T01:13:30.163Z,36.77
2022-09-25T01:18:56.165Z,36.23
2022-09-25T01:24:22.738Z,36.07
2022-09-25T01:29:31.260Z,31.83
2022-09-25T01:35:05.658Z,34.33
2022-09-25T01:40:26.701Z,32.20
2022-09-25T01:45:52.821Z,35.43
2022-09-25T01:51:06.989Z,40.70
2022-09-25T01:56:28.934Z,37.23
2022-09-25T02:01:40.209Z,38.17
2022-09-25T02:06:48.750Z,38.47
2022-09-25T02:11:57.139Z,36.23
2022-09-25T02:17:05.417Z,41.53
2022-09-25T02:22:13.696Z,40.63
2022-09-25T02:27:20.627Z,34.73
2022-09-25T02:32:30.897Z,33.27
2022-09-25T02:37:36.257Z,29.63
2022-09-25T02:42:50.793Z,30.83
2022-09-25T02:48:10.851Z,33.53
2022-09-25T02:53:31.245Z,40.67
2022-09-25T02:58:42.360Z,27.00
2022-09-25T03:03:50.497Z,29.13
2022-09-25T03:08:58.773Z,39.00
2022-09-25T03:14:06.260Z,31.40
2022-09-25T03:19:12.261Z,30.73
2022-09-25T03:24:17.874Z,30.97
2022-09-25T03:29:24.346Z,31.17
2022-09-25T03:34:30.087Z,26.93
2022-09-25T03:39:35.333Z,27.07
2022-09-25T03:44:40.791Z,27.17
2022-09-25T03:49:46.093Z,30.33
2022-09-25T03:54:51.690Z,28.53
2022-09-25T03:59:58.563Z,29.07
2022-09-25T04:05:04.444Z,32.93
2022-09-25T04:10:11.042Z,29.70
2022-09-25T04:15:16.267Z,31.43
2022-09-25T04:20:22.587Z,31.67
2022-09-25T04:25:27.808Z,32.83
2022-09-25T04:30:32.968Z,37.67
2022-09-25T04:35:40.683Z,33.57
2022-09-25T04:40:46.252Z,28.13
2022-09-25T04:45:51.855Z,39.03
2022-09-25T04:50:58.504Z,38.87
2022-09-25T04:56:14.680Z,35.97
2022-09-25T05:01:18.825Z,31.53
2022-09-25T05:06:24.238Z,41.40
2022-09-25T05:11:29.474Z,38.67
2022-09-25T05:16:34.915Z,40.77
2022-09-25T05:21:40.251Z,50.57
2022-09-25T05:26:45.469Z,47.07
2022-09-25T05:31:52.593Z,49.23
2022-09-25T05:36:58.421Z,47.90
2022-09-25T05:42:03.590Z,40.40
2022-09-25T05:47:10.883Z,50.17
2022-09-25T05:52:21.868Z,46.80
2022-09-25T05:57:28.818Z,45.77
2022-09-25T06:02:34.038Z,36.27
2022-09-25T06:07:39.529Z,38.53
2022-09-25T06:12:44.875Z,40.47
2022-09-25T06:17:50.253Z,28.97
2022-09-25T06:22:56.828Z,27.43
2022-09-25T06:28:05.017Z,31.90
2022-09-25T06:33:17.550Z,35.23
2022-09-25T06:38:23.216Z,36.07
2022-09-25T06:43:32.548Z,33.47
2022-09-25T06:48:38.812Z,35.83
2022-09-25T06:53:45.343Z,32.60
2022-09-25T06:58:50.697Z,40.50
2022-09-25T07:03:55.998Z,33.27
2022-09-25T07:09:02.928Z,40.50
2022-09-25T07:14:09.839Z,40.27
2022-09-25T07:19:15.066Z,38.57
2022-09-25T07:24:22.113Z,35.23
2022-09-25T07:29:36.621Z,39.83
2022-09-25T07:34:43.909Z,34.70
2022-09-25T07:39:57.047Z,39.77
2022-09-25T07:45:02.261Z,36.63
2022-09-25T07:50:10.889Z,34.13
2022-09-25T07:55:19.344Z,30.47
2022-09-25T08:00:33.279Z,35.07
2022-09-25T08:05:44.084Z,34.33
2022-09-25T08:10:50.056Z,34.67
2022-09-25T08:15:56.699Z,37.87
2022-09-25T08:21:05.854Z,33.83
2022-09-25T08:26:11.230Z,33.63
2022-09-25T08:31:16.633Z,30.97
2022-09-25T08:36:45.086Z,37.83
2022-09-25T08:41:57.407Z,36.10
2022-09-25T08:47:27.163Z,38.17
2022-09-25T08:52:33.975Z,36.33
2022-09-25T08:57:43.712Z,36.20
2022-09-25T09:02:57.958Z,37.97
2022-09-25T09:08:13.927Z,38.03
2022-09-25T09:13:41.940Z,35.70
2022-09-25T09:18:49.270Z,36.20
2022-09-25T09:24:18.208Z,38.07
2022-09-25T09:29:53.527Z,32.67
2022-09-25T09:35:16.593Z,36.23
2022-09-25T09:40:40.089Z,31.73
2022-09-25T09:45:57.224Z,33.10
2022-09-25T09:51:06.529Z,37.03
2022-09-25T09:56:17.254Z,28.73
2022-09-25T10:01:42.364Z,31.53
2022-09-25T10:06:35.792Z,33.10
2022-09-25T10:11:43.315Z,27.07
2022-09-25T10:16:51.506Z,25.23
2022-09-25T10:22:17.959Z,26.90
2022-09-25T10:27:36.315Z,30.17
2022-09-25T10:33:05.958Z,28.13
2022-09-25T10:38:33.648Z,24.80
2022-09-25T10:44:00.068Z,28.23
2022-09-25T10:49:42.288Z,27.07
2022-09-25T10:54:48.211Z,23.33
2022-09-25T10:59:55.181Z,28.53
2022-09-25T11:05:01.705Z,27.63
2022-09-25T11:10:09.511Z,19.90
2022-09-25T11:15:30.558Z,25.57
2022-09-25T11:20:42.828Z,22.03
2022-09-25T11:31:33.893Z,25.50
2022-09-25T11:36:47.464Z,24.13
2022-09-25T11:42:02.451Z,24.80
2022-09-25T11:47:27.949Z,22.53
2022-09-25T11:52:43.324Z,26.27
2022-09-25T11:57:56.459Z,20.53
2022-09-25T12:03:19.852Z,24.70
2022-09-25T12:08:33.726Z,27.53
2022-09-25T12:14:02.843Z,21.53
2022-09-25T12:19:16.284Z,25.47
2022-09-25T12:24:41.428Z,25.10
2022-09-25T12:30:02.115Z,21.23
2022-09-25T12:35:30.973Z,25.10
2022-09-25T12:40:43.854Z,20.23
2022-09-25T12:46:00.883Z,22.97
2022-09-25T12:51:24.076Z,25.30
2022-09-25T12:56:45.700Z,20.40
2022-09-25T13:02:00.375Z,23.50
2022-09-25T13:07:11.324Z,16.03
2022-09-25T13:12:37.861Z,15.73
2022-09-25T13:17:43.447Z,16.83
2022-09-25T13:22:48.874Z,13.20
2022-09-25T13:27:55.809Z,13.93
2022-09-25T13:33:04.864Z,17.87
2022-09-25T13:38:36.567Z,13.77
2022-09-25T13:43:41.979Z,14.80
2022-09-25T13:48:47.318Z,15.73
2022-09-25T13:54:08.125Z,15.73
2022-09-25T13:59:22.588Z,13.57
2022-09-25T14:04:31.442Z,12.47
2022-09-25T14:09:36.839Z,13.67
2022-09-25T14:14:49.647Z,19.80
2022-09-25T14:20:02.523Z,14.23
2022-09-25T14:25:39.300Z,16.67
2022-09-25T14:30:50.565Z,12.67
2022-09-25T14:36:07.737Z,12.03
2022-09-25T14:41:31.366Z,12.30
2022-09-25T14:46:37.903Z,13.93
2022-09-25T14:51:49.368Z,12.40
2022-09-25T14:57:01.853Z,13.07
2022-09-25T15:02:18.073Z,12.23
2022-09-25T15:12:55.812Z,15.80
2022-09-25T15:18:54.772Z,12.43
2022-09-25T15:29:05.462Z,15.23
2022-09-25T15:34:15.707Z,19.73
2022-09-25T15:39:26.306Z,12.57
2022-09-25T15:44:39.030Z,15.50
2022-09-25T15:49:46.977Z,14.57
2022-09-25T15:54:52.331Z,15.27
2022-09-25T16:00:24.993Z,15.03
2022-09-25T16:05:36.758Z,13.50
2022-09-25T16:10:46.446Z,14.47
2022-09-25T16:15:56.331Z,16.03
2022-09-25T16:21:16.832Z,15.33
2022-09-25T16:26:24.793Z,12.40
2022-09-25T16:31:36.417Z,20.17
2022-09-25T16:36:44.910Z,15.73
2022-09-25T16:42:00.310Z,22.50
2022-09-25T16:47:14.884Z,18.67
2022-09-25T16:52:24.207Z,24.13
2022-09-25T16:57:43.767Z,26.17
2022-09-25T17:08:25.165Z,40.27
2022-09-25T17:13:31.625Z,50.23
2022-09-25T17:18:40.954Z,46.90
2022-09-25T17:23:54.158Z,46.73
2022-09-25T17:29:00.346Z,54.83
2022-09-25T17:34:17.759Z,58.27
2022-09-25T17:39:26.285Z,83.80
2022-09-25T17:44:32.058Z,75.40
2022-09-25T17:49:41.942Z,66.30
2022-09-25T17:54:47.281Z,65.57
2022-09-25T17:59:54.972Z,59.07
2022-09-25T18:05:05.309Z,66.57
2022-09-25T18:10:19.158Z,71.03
2022-09-25T18:15:43.933Z,73.43
2022-09-25T18:21:11.292Z,100.10
2022-09-25T18:26:17.045Z,170.27
2022-09-25T18:31:22.779Z,141.97
2022-09-25T18:36:28.076Z,173.27
2022-09-25T18:41:34.900Z,162.43
2022-09-25T18:46:40.515Z,120.00
2022-09-25T18:51:46.173Z,105.03
2022-09-25T18:56:51.706Z,117.50
2022-09-25T19:01:57.213Z,113.27
2022-09-25T19:07:03.064Z,110.47
2022-09-25T19:12:08.651Z,115.63
2022-09-25T19:17:16.829Z,166.10
2022-09-25T19:22:22.384Z,172.83
2022-09-25T19:27:29.284Z,227.70
2022-09-25T19:32:34.552Z,213.20
2022-09-25T19:37:42.215Z,218.43
2022-09-25T19:42:47.915Z,212.97
2022-09-25T19:47:53.291Z,205.70
2022-09-25T19:52:59.946Z,179.70
2022-09-25T19:58:05.915Z,145.47
2022-09-25T20:03:11.516Z,159.17
2022-09-25T20:08:16.854Z,122.80
2022-09-25T20:13:22.127Z,105.10
2022-09-25T20:18:27.818Z,122.60
2022-09-25T20:23:37.630Z,115.60
2022-09-25T20:28:44.381Z,96.03
2022-09-25T20:33:49.982Z,91.20
2022-09-25T20:38:56.999Z,81.50
2022-09-25T20:44:02.436Z,103.37
2022-09-25T20:49:10.340Z,98.40
2022-09-25T20:54:16.105Z,102.67
2022-09-25T20:59:21.341Z,124.97
2022-09-25T21:04:26.777Z,122.80
2022-09-25T21:09:32.051Z,99.37
2022-09-25T21:14:38.249Z,95.53
2022-09-25T21:19:43.580Z,84.90
2022-09-25T21:24:50.381Z,83.13
2022-09-25T21:29:55.749Z,80.87
2022-09-25T21:35:01.125Z,80.37
2022-09-25T21:40:10.610Z,85.43
2022-09-25T21:45:16.113Z,84.80
2022-09-25T21:50:23.340Z,86.07
2022-09-25T21:55:28.560Z,83.77
2022-09-25T22:00:33.752Z,74.13
2022-09-25T22:05:40.959Z,60.50
2022-09-25T22:10:49.122Z,69.77
2022-09-25T22:16:03.714Z,57.03
2022-09-25T22:21:09.026Z,57.77
2022-09-25T22:26:15.700Z,54.67
2022-09-25T22:31:23.606Z,55.03
2022-09-25T22:36:30.315Z,51.70
2022-09-25T22:41:35.556Z,56.17
2022-09-25T22:46:40.925Z,56.60
2022-09-25T22:51:46.256Z,54.40
2022-09-25T22:56:52.941Z,45.43
2022-09-25T23:01:58.355Z,39.80
2022-09-25T23:07:03.776Z,38.30
2022-09-25T23:12:09.067Z,38.87
2022-09-25T23:17:14.351Z,39.77
2022-09-25T23:22:20.035Z,42.70
2022-09-25T23:27:25.305Z,43.37
2022-09-25T23:32:30.669Z,40.00
2022-09-25T23:37:35.934Z,36.47
2022-09-25T23:42:41.156Z,38.53
2022-09-25T23:47:46.440Z,35.63
2022-09-25T23:52:51.859Z,44.33
2022-09-25T23:57:56.944Z,43.47
